MET993 - Jakarta to Hong Kong

Airbus A330-243
787MT
4 hrs 15 mins
1762 nm
Scheduled - SU | M | W | F | SA

Bid/PiRep Status

Bid was submitted on Jan 01 2017.

PiRep # 74567: Approved by Sean Doyle on January 2nd, 2017 15:14 UTC

Departure

Departing from
Jakarta (CGK)
Departure gate
Ramp
Scheduled Departure
GMT 0900
Local 1600
METAR WIII 161230Z 25009KT 6000 SCT020 27/24 Q1009 NOSIG
TAF TAF WIII 161100Z 1612/1718 26006KT 6000 SCT020 BECMG 1618/1620 25003KT 5000 BR BECMG 1702/1704 28010KT 7000 NSW PROB40 TEMPO 1707/1710 5000 TSRA FEW019CB
  • No charts available

Arrival

Arriving at
Hong Kong (HKG)
Arrival gate
Ramp
Scheduled Arrival
GMT 1315
Local 2115
METAR VHHH 161230Z 10011KT 9999 FEW022 SCT028 18/13 Q1020 NOSIG
TAF TAF VHHH 161100Z 1612/1718 06010KT 8000 FEW018 SCT030 TX19/1706Z TN17/1623Z TEMPO 1615/1624 08015G25KT 4000 -RA BR

Route Map

Planning Resources

DKI P648 OSUKA M772 DULOP M771 DUMOL
AMBO1B AMBOY P648 OSUKA M772 DULOP Q1 CARSO V551 BETTY BETY2B
JAKARTA2 DEDNY B592 OSUKA M772 DUMOL DUMOL1A
WIII DKI ATOSO OSUKA ANIPU VSB TAMIB DARMU ASISU VAVUM DABGI DUM OL CH VHHH
AMBO1B AMBOY P648 OSUKA M772 DULOP Q1 CARSO
Route:
OFP Layout:
Units:
Detailed Navlog:
ETOPS Planning:
Plan Stepclimbs:
Runway Analysis:
Include NOTAMS:
FIR NOTAMS:
Flight Maps:

Return Flights

MET992
Airbus A330-243
0300 GMT

Popularity

Hub Current Bids PiReps this month Total PiReps
KMCI 0 1 2
KLAX 0 0 4
KBOS 0 0 0